createdAt,value
2022-08-03T00:00:42.208Z,4.20
2022-08-03T00:03:11.333Z,4.90
2022-08-03T00:05:40.454Z,4.70
2022-08-03T00:08:29.461Z,4.70
2022-08-03T00:10:58.765Z,4.70
2022-08-03T00:13:28.270Z,4.60
2022-08-03T00:15:57.055Z,4.90
2022-08-03T00:18:26.130Z,4.00
2022-08-03T00:20:54.941Z,4.40
2022-08-03T00:23:23.833Z,3.30
2022-08-03T00:25:52.928Z,4.10
2022-08-03T00:28:21.718Z,4.40
2022-08-03T00:30:50.712Z,4.40
2022-08-03T00:33:19.809Z,4.40
2022-08-03T00:35:51.268Z,4.90
2022-08-03T00:38:21.176Z,4.60
2022-08-03T00:40:50.067Z,4.60
2022-08-03T00:43:19.163Z,4.60
2022-08-03T00:45:48.650Z,4.40
2022-08-03T00:48:33.104Z,4.10
2022-08-03T00:51:03.044Z,4.30
2022-08-03T00:53:32.650Z,4.10
2022-08-03T00:56:01.546Z,4.40
2022-08-03T00:58:30.433Z,4.40
2022-08-03T01:00:59.571Z,4.20
2022-08-03T01:03:28.728Z,4.60
2022-08-03T01:06:40.218Z,4.30
2022-08-03T01:09:29.389Z,4.10
2022-08-03T01:12:33.606Z,4.00
2022-08-03T01:15:43.663Z,3.60
2022-08-03T01:18:25.050Z,4.90
2022-08-03T01:20:58.153Z,4.30
2022-08-03T01:24:00.311Z,4.40
2022-08-03T01:26:56.748Z,4.30
2022-08-03T01:30:05.590Z,4.30
2022-08-03T01:33:00.917Z,4.40
2022-08-03T01:35:49.132Z,4.60
2022-08-03T01:38:30.003Z,4.40
2022-08-03T01:41:05.181Z,4.30
2022-08-03T01:44:27.324Z,4.20
2022-08-03T01:46:26.196Z,4.90
2022-08-03T01:48:56.737Z,5.20
2022-08-03T01:51:56.563Z,4.50
2022-08-03T01:54:16.059Z,4.80
2022-08-03T01:56:46.896Z,4.60
2022-08-03T01:59:19.444Z,4.80
2022-08-03T02:02:15.567Z,5.30
2022-08-03T02:04:39.413Z,5.60
2022-08-03T02:07:09.797Z,5.60
2022-08-03T02:09:41.325Z,7.30
2022-08-03T02:12:12.247Z,7.50
2022-08-03T02:14:44.625Z,7.50
2022-08-03T02:17:15.212Z,7.70
2022-08-03T02:19:45.352Z,7.40
2022-08-03T02:22:15.609Z,7.40
2022-08-03T02:24:51.058Z,7.00
2022-08-03T02:27:27.438Z,6.80
2022-08-03T02:30:12.498Z,6.70
2022-08-03T02:32:49.069Z,6.80
2022-08-03T02:35:21.610Z,5.90
2022-08-03T02:38:00.434Z,6.30
2022-08-03T02:40:32.142Z,6.10
2022-08-03T02:43:07.986Z,5.90
2022-08-03T02:45:45.658Z,6.10
2022-08-03T02:48:22.995Z,5.90
2022-08-03T02:50:55.237Z,5.80
2022-08-03T02:53:25.219Z,5.80
2022-08-03T02:55:57.141Z,6.00
2022-08-03T02:58:26.893Z,5.60
2022-08-03T03:00:57.272Z,5.50
2022-08-03T03:03:28.240Z,5.50
2022-08-03T03:06:01.555Z,5.30
2022-08-03T03:08:35.242Z,5.00
2022-08-03T03:11:05.951Z,5.30
2022-08-03T03:13:34.989Z,5.50
2022-08-03T03:16:08.569Z,6.10
2022-08-03T03:18:38.634Z,5.80
2022-08-03T03:21:10.617Z,5.60
2022-08-03T03:23:42.071Z,5.70
2022-08-03T03:26:13.512Z,6.00
2022-08-03T03:28:42.980Z,5.70
2022-08-03T03:31:12.385Z,5.60
2022-08-03T03:33:41.583Z,5.30
2022-08-03T03:36:10.884Z,6.10
2022-08-03T03:38:39.982Z,6.50
2022-08-03T03:41:10.101Z,5.90
2022-08-03T03:43:39.096Z,6.10
2022-08-03T03:46:08.499Z,5.90
2022-08-03T03:48:37.289Z,5.40
2022-08-03T03:51:07.496Z,5.20
2022-08-03T03:53:36.404Z,4.60
2022-08-03T03:56:05.601Z,4.70
2022-08-03T03:58:34.492Z,5.30
2022-08-03T04:01:03.613Z,5.30
2022-08-03T04:03:32.583Z,5.30
2022-08-03T04:06:20.214Z,4.80
2022-08-03T04:09:07.844Z,5.30
2022-08-03T04:11:58.958Z,6.10
2022-08-03T04:14:34.248Z,5.30
2022-08-03T04:17:07.596Z,5.40
2022-08-03T04:19:45.603Z,5.20
2022-08-03T04:22:19.905Z,5.50
2022-08-03T04:25:01.101Z,5.30
2022-08-03T04:27:37.468Z,5.60
2022-08-03T04:30:07.916Z,5.30
2022-08-03T04:32:39.302Z,5.70
2022-08-03T04:35:10.681Z,5.50
2022-08-03T04:37:52.386Z,5.10
2022-08-03T04:40:41.130Z,4.90
2022-08-03T04:43:14.042Z,4.70
2022-08-03T04:45:45.055Z,4.80
2022-08-03T04:48:15.739Z,5.20
2022-08-03T04:50:45.212Z,5.30
2022-08-03T04:53:14.206Z,5.10
2022-08-03T04:55:43.203Z,5.50
2022-08-03T04:58:13.010Z,5.00
2022-08-03T05:00:42.824Z,5.60
2022-08-03T05:03:23.505Z,5.30
2022-08-03T05:06:01.738Z,5.20
2022-08-03T05:08:46.063Z,5.40
2022-08-03T05:11:17.618Z,5.20
2022-08-03T05:13:46.821Z,5.30
2022-08-03T05:16:16.010Z,5.20
2022-08-03T05:18:46.390Z,4.90
2022-08-03T05:21:16.660Z,4.60
2022-08-03T05:23:45.673Z,5.00
2022-08-03T05:26:14.548Z,5.20
2022-08-03T05:28:51.038Z,4.70
2022-08-03T05:31:20.560Z,5.40
2022-08-03T05:33:49.821Z,5.60
2022-08-03T05:36:18.612Z,4.90
2022-08-03T05:38:47.399Z,4.60
2022-08-03T05:41:22.765Z,5.20
2022-08-03T05:43:55.525Z,5.00
2022-08-03T05:46:24.709Z,5.20
2022-08-03T05:48:53.670Z,4.90
2022-08-03T05:51:22.819Z,5.00
2022-08-03T05:53:51.706Z,5.50
2022-08-03T05:56:27.152Z,5.40
2022-08-03T05:58:56.146Z,5.00
2022-08-03T06:01:25.470Z,6.00
2022-08-03T06:03:54.338Z,5.40
2022-08-03T06:06:23.129Z,5.50
2022-08-03T06:08:52.226Z,5.10
2022-08-03T06:11:21.116Z,5.70
2022-08-03T06:13:50.007Z,5.80
2022-08-03T06:16:18.798Z,5.50
2022-08-03T06:18:48.199Z,5.30
2022-08-03T06:21:16.993Z,5.30
2022-08-03T06:23:54.193Z,5.50
2022-08-03T06:26:28.699Z,5.40
2022-08-03T06:28:57.696Z,5.60
2022-08-03T06:31:33.359Z,6.70
2022-08-03T06:34:31.011Z,6.50
2022-08-03T06:37:01.329Z,5.80
2022-08-03T06:39:31.147Z,5.30
2022-08-03T06:42:00.156Z,5.70
2022-08-03T06:44:29.033Z,6.10
2022-08-03T06:46:59.052Z,5.90
2022-08-03T06:49:28.303Z,5.90
2022-08-03T06:52:05.403Z,6.80
2022-08-03T06:54:36.803Z,6.20
2022-08-03T06:57:06.750Z,6.10
2022-08-03T07:00:08.177Z,5.50
2022-08-03T07:02:24.967Z,5.30
2022-08-03T07:04:57.536Z,6.10
2022-08-03T07:07:26.437Z,5.20
2022-08-03T07:09:57.852Z,5.40
2022-08-03T07:12:29.713Z,5.10
2022-08-03T07:15:02.694Z,5.40
2022-08-03T07:17:35.414Z,5.30
2022-08-03T07:20:08.052Z,5.70
2022-08-03T07:22:37.299Z,5.40
2022-08-03T07:25:07.031Z,5.20
2022-08-03T07:27:36.000Z,6.30
2022-08-03T07:30:08.517Z,6.10
2022-08-03T07:32:37.674Z,5.90
2022-08-03T07:35:24.294Z,5.70
2022-08-03T07:37:55.230Z,5.90
2022-08-03T07:40:25.109Z,5.80
2022-08-03T07:43:00.602Z,5.30
2022-08-03T07:45:31.533Z,6.10
2022-08-03T07:48:00.822Z,5.50
2022-08-03T07:50:29.724Z,5.80
2022-08-03T07:53:00.244Z,5.30
2022-08-03T07:55:30.627Z,5.40
2022-08-03T07:58:10.136Z,5.40
2022-08-03T08:00:39.242Z,4.80
2022-08-03T08:03:08.699Z,5.40
2022-08-03T08:05:38.116Z,5.80
2022-08-03T08:08:07.930Z,4.40
2022-08-03T08:10:37.333Z,5.50
2022-08-03T08:13:06.226Z,4.90
2022-08-03T08:15:35.118Z,4.50
2022-08-03T08:18:04.531Z,5.50
2022-08-03T08:20:38.214Z,5.30
2022-08-03T08:23:13.906Z,4.40
2022-08-03T08:25:58.331Z,5.50
2022-08-03T08:28:32.819Z,5.20
2022-08-03T08:31:03.282Z,5.20
2022-08-03T08:33:54.261Z,4.60
2022-08-03T08:36:21.989Z,4.70
2022-08-03T08:38:50.862Z,5.50
2022-08-03T08:41:19.799Z,5.10
2022-08-03T08:43:48.746Z,5.30
2022-08-03T08:46:23.953Z,5.10
2022-08-03T08:48:55.681Z,4.80
2022-08-03T08:51:54.866Z,5.50
2022-08-03T08:54:22.847Z,5.10
2022-08-03T08:56:53.846Z,5.20
2022-08-03T08:59:23.554Z,4.90
2022-08-03T09:01:57.055Z,4.90
2022-08-03T09:04:27.076Z,5.20
2022-08-03T09:07:18.829Z,5.50
2022-08-03T09:10:12.343Z,6.40
2022-08-03T09:12:44.719Z,5.60
2022-08-03T09:15:30.333Z,5.00
2022-08-03T09:18:02.861Z,4.30
2022-08-03T09:20:34.894Z,4.50
2022-08-03T09:23:44.497Z,5.40
2022-08-03T09:26:01.969Z,4.60
2022-08-03T09:29:00.595Z,4.60
2022-08-03T09:32:02.906Z,4.70
2022-08-03T09:34:33.433Z,4.10
2022-08-03T09:37:02.400Z,4.00
2022-08-03T09:39:41.078Z,3.60
2022-08-03T09:42:23.923Z,3.70
2022-08-03T09:44:53.579Z,3.20
2022-08-03T09:47:36.953Z,3.10
2022-08-03T09:50:13.728Z,3.50
2022-08-03T09:52:52.444Z,3.40
2022-08-03T09:56:34.257Z,3.50
2022-08-03T09:58:14.661Z,3.80
2022-08-03T10:01:05.792Z,3.50
2022-08-03T10:04:03.123Z,3.40
2022-08-03T10:06:29.899Z,3.30
2022-08-03T10:09:10.734Z,3.60
2022-08-03T10:11:42.426Z,3.40
2022-08-03T10:14:23.893Z,3.40
2022-08-03T10:16:52.683Z,3.40
2022-08-03T10:19:21.573Z,3.10
2022-08-03T10:21:56.030Z,3.10
2022-08-03T10:24:28.480Z,3.10
2022-08-03T10:27:08.829Z,3.10
2022-08-03T10:29:47.794Z,2.90
2022-08-03T10:32:32.113Z,3.20
2022-08-03T10:35:21.565Z,2.90
2022-08-03T10:38:02.559Z,3.40
2022-08-03T10:40:51.089Z,3.00
2022-08-03T10:43:26.346Z,2.60
2022-08-03T10:45:56.881Z,3.60
2022-08-03T10:48:26.704Z,2.60
2022-08-03T10:50:55.894Z,2.30
2022-08-03T10:53:40.753Z,2.70
2022-08-03T10:56:51.845Z,2.60
2022-08-03T10:59:47.266Z,2.40
2022-08-03T11:02:16.657Z,2.70
2022-08-03T11:04:48.123Z,2.30
2022-08-03T11:07:17.940Z,2.90
2022-08-03T11:09:53.369Z,3.10
2022-08-03T11:12:33.736Z,2.70
2022-08-03T11:15:08.986Z,3.00
2022-08-03T11:17:45.751Z,2.80
2022-08-03T11:20:56.417Z,2.20
2022-08-03T11:24:04.020Z,2.70
2022-08-03T11:26:35.365Z,2.70
2022-08-03T11:29:31.597Z,2.50
2022-08-03T11:32:00.388Z,2.20
2022-08-03T11:34:29.176Z,2.50
2022-08-03T11:37:31.374Z,2.90
2022-08-03T11:40:02.948Z,2.70
2022-08-03T11:42:35.686Z,2.30
2022-08-03T11:45:08.267Z,2.40
2022-08-03T11:47:50.987Z,2.40
2022-08-03T11:50:21.675Z,2.50
2022-08-03T11:52:51.413Z,2.60
2022-08-03T11:55:22.419Z,2.20
2022-08-03T11:59:19.012Z,2.50
2022-08-03T12:00:40.665Z,3.00
2022-08-03T12:03:13.980Z,2.90
2022-08-03T12:05:53.055Z,2.70
2022-08-03T12:08:28.201Z,3.10
2022-08-03T12:11:00.128Z,2.60
2022-08-03T12:14:44.308Z,2.40
2022-08-03T12:16:38.579Z,2.50
2022-08-03T12:19:08.613Z,2.50
2022-08-03T12:21:56.819Z,2.60
2022-08-03T12:24:29.025Z,2.90
2022-08-03T12:27:00.085Z,2.60
2022-08-03T12:29:29.577Z,2.50
2022-08-03T12:31:58.374Z,2.40
2022-08-03T12:34:47.808Z,2.10
2022-08-03T12:37:25.945Z,2.80
2022-08-03T12:40:09.632Z,2.50
2022-08-03T12:42:41.007Z,2.80
2022-08-03T12:45:32.966Z,2.40
2022-08-03T12:48:02.985Z,2.60
2022-08-03T12:50:34.690Z,2.90
2022-08-03T12:53:08.928Z,2.90
2022-08-03T12:55:57.651Z,2.90
2022-08-03T12:58:37.149Z,2.90
2022-08-03T13:01:09.472Z,2.90
2022-08-03T13:03:52.739Z,2.90
2022-08-03T13:06:25.739Z,2.90
2022-08-03T13:09:07.519Z,2.80
2022-08-03T13:11:55.693Z,2.60
2022-08-03T13:14:25.188Z,2.60
2022-08-03T13:16:54.180Z,2.80
2022-08-03T13:19:22.970Z,3.00
2022-08-03T13:21:53.848Z,2.60
2022-08-03T13:24:34.102Z,2.60
2022-08-03T13:28:04.928Z,2.00
2022-08-03T13:29:55.408Z,2.20
2022-08-03T13:32:24.761Z,2.70
2022-08-03T13:34:53.696Z,2.90
2022-08-03T13:37:23.093Z,3.10
2022-08-03T13:39:59.868Z,2.70
2022-08-03T13:42:32.594Z,2.80
2022-08-03T13:45:03.064Z,2.20
2022-08-03T13:47:32.389Z,2.80
2022-08-03T13:50:03.063Z,2.70
2022-08-03T13:52:35.640Z,2.80
2022-08-03T13:55:07.511Z,2.70
2022-08-03T13:58:04.794Z,2.90
2022-08-03T14:00:29.228Z,2.70
2022-08-03T14:03:16.583Z,2.90
2022-08-03T14:05:45.937Z,2.70
2022-08-03T14:08:15.550Z,2.60
2022-08-03T14:10:45.813Z,2.60
2022-08-03T14:13:17.800Z,3.50
2022-08-03T14:15:49.749Z,3.30
2022-08-03T14:18:28.608Z,2.50
2022-08-03T14:21:06.459Z,2.80
2022-08-03T14:23:38.202Z,2.60
2022-08-03T14:26:08.924Z,2.80
2022-08-03T14:28:38.112Z,2.50
2022-08-03T14:31:08.405Z,2.80
2022-08-03T14:33:56.579Z,2.90
2022-08-03T14:36:25.888Z,2.80
2022-08-03T14:38:57.094Z,2.90
2022-08-03T14:41:30.018Z,2.50
2022-08-03T14:44:01.871Z,2.70
2022-08-03T14:46:32.666Z,3.00
2022-08-03T14:50:34.333Z,2.70
2022-08-03T14:51:53.519Z,2.30
2022-08-03T14:54:23.861Z,2.90
2022-08-03T14:56:53.268Z,2.80
2022-08-03T14:59:22.264Z,2.30
2022-08-03T15:02:06.261Z,2.80
2022-08-03T15:04:37.964Z,2.70
2022-08-03T15:07:07.063Z,2.40
2022-08-03T15:09:36.158Z,2.90
2022-08-03T15:12:06.935Z,3.00
2022-08-03T15:14:35.987Z,2.40
2022-08-03T15:17:07.800Z,2.50
2022-08-03T15:20:03.978Z,2.70
2022-08-03T15:22:34.382Z,2.70
2022-08-03T15:26:27.917Z,2.60
2022-08-03T15:28:03.983Z,3.10
2022-08-03T15:30:36.498Z,3.50
2022-08-03T15:33:07.001Z,2.80
2022-08-03T15:35:36.545Z,2.70
2022-08-03T15:38:09.291Z,2.60
2022-08-03T15:40:38.738Z,2.70
2022-08-03T15:43:07.830Z,3.00
2022-08-03T15:45:37.386Z,2.30
2022-08-03T15:48:06.709Z,2.40
2022-08-03T15:50:35.631Z,2.90
2022-08-03T15:53:05.268Z,2.60
2022-08-03T15:55:34.232Z,2.70
2022-08-03T15:59:10.143Z,2.30
2022-08-03T16:00:51.990Z,2.50
2022-08-03T16:03:20.775Z,2.30
2022-08-03T16:05:49.767Z,2.70
2022-08-03T16:08:18.562Z,2.50
2022-08-03T16:10:48.587Z,2.40
2022-08-03T16:13:19.309Z,2.50
2022-08-03T16:15:49.005Z,2.70
2022-08-03T16:18:18.116Z,2.80
2022-08-03T16:20:47.417Z,2.70
2022-08-03T16:23:19.031Z,2.40
2022-08-03T16:25:49.475Z,2.80
2022-08-03T16:28:19.161Z,2.70
2022-08-03T16:30:48.311Z,2.40
2022-08-03T16:33:17.945Z,2.20
2022-08-03T16:35:50.085Z,2.50
2022-08-03T16:38:19.610Z,2.50
2022-08-03T16:40:52.325Z,2.90
2022-08-03T16:43:23.202Z,2.40
2022-08-03T16:45:53.110Z,3.00
2022-08-03T16:48:22.019Z,2.40
2022-08-03T16:50:51.012Z,2.70
2022-08-03T16:53:33.608Z,2.80
2022-08-03T16:56:11.035Z,3.10
2022-08-03T16:58:41.674Z,2.60
2022-08-03T17:01:24.182Z,2.20
2022-08-03T17:04:04.692Z,2.90
2022-08-03T17:06:44.765Z,2.60
2022-08-03T17:09:21.351Z,2.90
2022-08-03T17:11:52.039Z,2.90
2022-08-03T17:14:28.216Z,2.30
2022-08-03T17:17:04.046Z,2.60
2022-08-03T17:19:35.403Z,3.00
2022-08-03T17:22:15.974Z,3.00
2022-08-03T17:24:52.972Z,3.60
2022-08-03T17:28:49.759Z,3.30
2022-08-03T17:30:19.213Z,2.90
2022-08-03T17:32:52.407Z,3.60
2022-08-03T17:35:34.343Z,2.70
2022-08-03T17:38:10.523Z,3.20
2022-08-03T17:40:49.925Z,3.00
2022-08-03T17:44:13.510Z,3.40
2022-08-03T17:46:10.791Z,3.10
2022-08-03T17:48:41.940Z,2.80
2022-08-03T17:51:46.395Z,2.70
2022-08-03T17:54:27.118Z,3.00
2022-08-03T17:57:22.072Z,2.80
2022-08-03T18:00:28.790Z,2.80
2022-08-03T18:03:18.673Z,2.90
2022-08-03T18:06:11.106Z,3.00
2022-08-03T18:08:55.261Z,3.00
2022-08-03T18:11:35.579Z,3.30
2022-08-03T18:14:16.131Z,3.30
2022-08-03T18:16:52.864Z,2.80
2022-08-03T18:20:01.000Z,3.10
2022-08-03T18:22:13.720Z,2.90
2022-08-03T18:24:44.678Z,4.30
2022-08-03T18:27:16.230Z,4.50
2022-08-03T18:29:50.081Z,4.90
2022-08-03T18:32:21.129Z,6.30
2022-08-03T18:34:58.563Z,6.30
2022-08-03T18:37:28.641Z,8.30
2022-08-03T18:39:58.735Z,5.70
2022-08-03T18:42:28.984Z,4.80
2022-08-03T18:45:55.026Z,3.30
2022-08-03T18:48:09.229Z,3.00
2022-08-03T18:50:39.077Z,2.80
2022-08-03T18:54:01.877Z,2.80
2022-08-03T18:56:54.482Z,3.50
2022-08-03T18:59:31.233Z,4.10
2022-08-03T19:02:09.237Z,4.40
2022-08-03T19:04:48.151Z,4.70
2022-08-03T19:07:27.081Z,5.00
2022-08-03T19:10:11.386Z,4.30
2022-08-03T19:12:57.873Z,4.00
2022-08-03T19:15:36.587Z,4.00
2022-08-03T19:18:10.759Z,4.90
2022-08-03T19:20:41.665Z,6.10
2022-08-03T19:23:17.588Z,5.00
2022-08-03T19:25:47.112Z,5.60
2022-08-03T19:28:17.593Z,5.50
2022-08-03T19:30:53.611Z,5.10
2022-08-03T19:33:29.854Z,5.20
2022-08-03T19:35:59.266Z,5.30
2022-08-03T19:38:29.873Z,5.60
2022-08-03T19:41:04.041Z,5.70
2022-08-03T19:43:57.629Z,6.60
2022-08-03T19:46:31.600Z,7.10
2022-08-03T19:49:15.243Z,8.60
2022-08-03T19:52:02.618Z,11.50
2022-08-03T19:54:45.792Z,10.80
2022-08-03T19:57:27.453Z,10.70
2022-08-03T19:59:57.965Z,11.00
2022-08-03T20:02:29.637Z,11.40
2022-08-03T20:05:00.409Z,12.50
2022-08-03T20:07:34.428Z,12.40
2022-08-03T20:10:06.563Z,11.20
2022-08-03T20:12:39.318Z,11.30
2022-08-03T20:15:10.895Z,11.60
2022-08-03T20:17:56.418Z,11.90
2022-08-03T20:20:33.857Z,11.40
2022-08-03T20:23:11.792Z,11.30
2022-08-03T20:25:58.422Z,10.40
2022-08-03T20:28:50.115Z,10.20
2022-08-03T20:31:23.952Z,10.60
2022-08-03T20:34:01.530Z,11.20
2022-08-03T20:36:30.403Z,12.10
2022-08-03T20:38:59.813Z,12.10
2022-08-03T20:41:30.723Z,12.30
2022-08-03T20:44:02.164Z,12.70
2022-08-03T20:46:41.673Z,12.10
2022-08-03T20:49:23.163Z,11.90
2022-08-03T20:51:53.742Z,10.10
2022-08-03T20:54:30.737Z,10.30
2022-08-03T20:57:04.455Z,10.30
2022-08-03T20:59:51.244Z,10.40
2022-08-03T21:02:30.095Z,9.20
2022-08-03T21:05:03.767Z,10.10
2022-08-03T21:08:03.991Z,9.60
2022-08-03T21:10:33.482Z,9.80
2022-08-03T21:13:24.034Z,10.70
2022-08-03T21:16:07.073Z,10.50
2022-08-03T21:18:54.140Z,10.30
2022-08-03T21:21:24.272Z,9.90
2022-08-03T21:23:55.599Z,9.30
2022-08-03T21:26:27.757Z,9.80
2022-08-03T21:28:57.525Z,9.60
2022-08-03T21:31:27.394Z,10.10
2022-08-03T21:34:03.981Z,9.90
2022-08-03T21:36:36.423Z,10.90
2022-08-03T21:39:08.796Z,10.50
2022-08-03T21:41:40.269Z,10.40
2022-08-03T21:44:09.406Z,10.60
2022-08-03T21:46:41.575Z,10.00
2022-08-03T21:50:07.622Z,9.70
2022-08-03T21:52:07.091Z,10.20
2022-08-03T21:54:41.188Z,10.90
2022-08-03T21:57:25.884Z,10.80
2022-08-03T22:00:02.148Z,10.20
2022-08-03T22:02:32.378Z,10.50
2022-08-03T22:05:05.001Z,9.00
2022-08-03T22:07:35.257Z,9.00
2022-08-03T22:10:07.757Z,9.50
2022-08-03T22:12:37.002Z,8.30
2022-08-03T22:15:10.711Z,8.40
2022-08-03T22:17:55.786Z,8.30
2022-08-03T22:20:26.569Z,8.60
2022-08-03T22:23:02.345Z,10.10
2022-08-03T22:25:36.217Z,9.70
2022-08-03T22:28:12.795Z,9.70
2022-08-03T22:30:43.036Z,9.60
2022-08-03T22:33:13.223Z,10.70
2022-08-03T22:35:50.690Z,9.90
2022-08-03T22:38:19.729Z,9.50
2022-08-03T22:40:51.313Z,9.80
2022-08-03T22:43:28.053Z,9.10
2022-08-03T22:46:09.742Z,9.10
2022-08-03T22:48:41.826Z,8.40
2022-08-03T22:51:11.233Z,8.50
2022-08-03T22:53:41.130Z,9.50
2022-08-03T22:56:10.746Z,9.50
2022-08-03T22:58:39.636Z,9.50
2022-08-03T23:01:12.111Z,9.40
2022-08-03T23:04:00.151Z,8.50
2022-08-03T23:06:39.010Z,8.50
2022-08-03T23:09:14.471Z,8.40
2022-08-03T23:11:45.996Z,8.70
2022-08-03T23:14:18.969Z,8.60
2022-08-03T23:16:48.398Z,8.50
2022-08-03T23:19:25.309Z,7.80
2022-08-03T23:22:03.553Z,8.80
2022-08-03T23:24:38.348Z,8.80
2022-08-03T23:27:09.689Z,8.80
2022-08-03T23:29:42.832Z,9.10
2022-08-03T23:32:14.631Z,9.20
2022-08-03T23:35:03.165Z,9.20
2022-08-03T23:37:33.729Z,7.60
2022-08-03T23:40:29.233Z,7.60
2022-08-03T23:42:58.795Z,7.90
2022-08-03T23:45:28.493Z,8.30
2022-08-03T23:47:57.310Z,7.50
2022-08-03T23:50:33.914Z,7.40
2022-08-03T23:53:39.035Z,7.50
2022-08-03T23:56:21.520Z,7.60
2022-08-03T23:59:10.381Z,7.70
